sensor_id;sensor_type;location;lat;lon;timestamp;P1;durP1;ratioP1;P2;durP2;ratioP2
14048;SDS011;7099;53.922;10.728;2023-11-21T00:02:41;13.80;;;5.40;;
14048;SDS011;7099;53.922;10.728;2023-11-21T00:06:50;6.20;;;4.77;;
14048;SDS011;7099;53.922;10.728;2023-11-21T00:10:56;8.93;;;5.00;;
14048;SDS011;7099;53.922;10.728;2023-11-21T00:15:02;7.37;;;5.13;;
14048;SDS011;7099;53.922;10.728;2023-11-21T00:19:15;9.53;;;5.53;;
14048;SDS011;7099;53.922;10.728;2023-11-21T00:23:21;8.87;;;4.73;;
14048;SDS011;7099;53.922;10.728;2023-11-21T00:27:27;8.45;;;6.15;;
14048;SDS011;7099;53.922;10.728;2023-11-21T00:31:32;7.97;;;5.80;;
14048;SDS011;7099;53.922;10.728;2023-11-21T00:35:38;8.90;;;5.33;;
14048;SDS011;7099;53.922;10.728;2023-11-21T00:39:44;11.80;;;5.20;;
14048;SDS011;7099;53.922;10.728;2023-11-21T00:43:49;8.93;;;5.50;;
14048;SDS011;7099;53.922;10.728;2023-11-21T00:47:55;7.40;;;5.63;;
14048;SDS011;7099;53.922;10.728;2023-11-21T00:52:03;6.63;;;5.50;;
14048;SDS011;7099;53.922;10.728;2023-11-21T00:56:09;7.60;;;5.30;;
14048;SDS011;7099;53.922;10.728;2023-11-21T01:00:14;9.60;;;5.60;;
14048;SDS011;7099;53.922;10.728;2023-11-21T01:04:22;7.43;;;5.20;;
14048;SDS011;7099;53.922;10.728;2023-11-21T01:08:28;8.60;;;5.03;;
14048;SDS011;7099;53.922;10.728;2023-11-21T01:12:34;5.83;;;4.90;;
14048;SDS011;7099;53.922;10.728;2023-11-21T01:16:42;6.60;;;4.73;;
14048;SDS011;7099;53.922;10.728;2023-11-21T01:20:47;6.60;;;4.37;;
14048;SDS011;7099;53.922;10.728;2023-11-21T01:24:53;6.83;;;4.80;;
14048;SDS011;7099;53.922;10.728;2023-11-21T01:28:59;6.17;;;4.60;;
14048;SDS011;7099;53.922;10.728;2023-11-21T01:33:04;6.00;;;4.00;;
14048;SDS011;7099;53.922;10.728;2023-11-21T01:37:10;5.60;;;4.27;;
14048;SDS011;7099;53.922;10.728;2023-11-21T01:41:17;6.90;;;3.90;;
14048;SDS011;7099;53.922;10.728;2023-11-21T01:45:22;4.87;;;4.20;;
14048;SDS011;7099;53.922;10.728;2023-11-21T01:49:29;5.77;;;4.47;;
14048;SDS011;7099;53.922;10.728;2023-11-21T01:53:38;7.87;;;4.57;;
14048;SDS011;7099;53.922;10.728;2023-11-21T01:57:45;6.00;;;5.30;;
14048;SDS011;7099;53.922;10.728;2023-11-21T02:01:51;7.10;;;4.80;;
14048;SDS011;7099;53.922;10.728;2023-11-21T02:05:56;5.90;;;4.43;;
14048;SDS011;7099;53.922;10.728;2023-11-21T02:10:03;6.73;;;5.37;;
14048;SDS011;7099;53.922;10.728;2023-11-21T02:14:10;6.97;;;4.90;;
14048;SDS011;7099;53.922;10.728;2023-11-21T02:18:15;7.97;;;6.00;;
14048;SDS011;7099;53.922;10.728;2023-11-21T02:22:22;5.63;;;5.03;;
14048;SDS011;7099;53.922;10.728;2023-11-21T02:26:35;10.30;;;5.80;;
14048;SDS011;7099;53.922;10.728;2023-11-21T02:30:41;7.30;;;5.00;;
14048;SDS011;7099;53.922;10.728;2023-11-21T02:34:48;7.67;;;5.70;;
14048;SDS011;7099;53.922;10.728;2023-11-21T02:38:54;8.63;;;5.33;;
14048;SDS011;7099;53.922;10.728;2023-11-21T02:43:00;8.03;;;5.63;;
14048;SDS011;7099;53.922;10.728;2023-11-21T02:47:06;7.83;;;6.10;;
14048;SDS011;7099;53.922;10.728;2023-11-21T02:51:11;8.80;;;5.50;;
14048;SDS011;7099;53.922;10.728;2023-11-21T02:55:17;7.60;;;5.80;;
14048;SDS011;7099;53.922;10.728;2023-11-21T02:59:23;10.40;;;5.93;;
14048;SDS011;7099;53.922;10.728;2023-11-21T03:03:28;7.07;;;5.50;;
14048;SDS011;7099;53.922;10.728;2023-11-21T03:07:34;6.67;;;5.70;;
14048;SDS011;7099;53.922;10.728;2023-11-21T03:11:41;7.67;;;5.43;;
14048;SDS011;7099;53.922;10.728;2023-11-21T03:15:47;7.47;;;5.93;;
14048;SDS011;7099;53.922;10.728;2023-11-21T03:19:53;6.80;;;5.47;;
14048;SDS011;7099;53.922;10.728;2023-11-21T03:23:59;6.40;;;4.70;;
14048;SDS011;7099;53.922;10.728;2023-11-21T03:28:05;5.13;;;4.20;;
14048;SDS011;7099;53.922;10.728;2023-11-21T03:32:10;5.50;;;4.57;;
14048;SDS011;7099;53.922;10.728;2023-11-21T03:36:16;6.17;;;4.90;;
14048;SDS011;7099;53.922;10.728;2023-11-21T03:40:22;6.70;;;4.90;;
14048;SDS011;7099;53.922;10.728;2023-11-21T03:44:28;7.13;;;5.03;;
14048;SDS011;7099;53.922;10.728;2023-11-21T03:48:34;5.70;;;4.70;;
14048;SDS011;7099;53.922;10.728;2023-11-21T03:52:40;6.53;;;4.83;;
14048;SDS011;7099;53.922;10.728;2023-11-21T03:56:46;5.13;;;4.13;;
14048;SDS011;7099;53.922;10.728;2023-11-21T04:00:51;6.27;;;4.70;;
14048;SDS011;7099;53.922;10.728;2023-11-21T04:04:57;7.83;;;4.43;;
14048;SDS011;7099;53.922;10.728;2023-11-21T04:09:02;4.90;;;4.13;;
14048;SDS011;7099;53.922;10.728;2023-11-21T04:13:09;7.27;;;4.60;;
14048;SDS011;7099;53.922;10.728;2023-11-21T04:21:23;7.37;;;3.83;;
14048;SDS011;7099;53.922;10.728;2023-11-21T04:25:29;4.93;;;3.73;;
14048;SDS011;7099;53.922;10.728;2023-11-21T04:29:34;5.30;;;3.27;;
14048;SDS011;7099;53.922;10.728;2023-11-21T04:33:40;3.50;;;2.80;;
14048;SDS011;7099;53.922;10.728;2023-11-21T04:37:45;4.10;;;3.00;;
14048;SDS011;7099;53.922;10.728;2023-11-21T04:41:51;3.50;;;2.97;;
14048;SDS011;7099;53.922;10.728;2023-11-21T04:45:56;4.17;;;3.10;;
14048;SDS011;7099;53.922;10.728;2023-11-21T04:50:02;3.33;;;3.03;;
14048;SDS011;7099;53.922;10.728;2023-11-21T04:54:09;3.43;;;3.03;;
14048;SDS011;7099;53.922;10.728;2023-11-21T04:58:15;5.10;;;3.43;;
14048;SDS011;7099;53.922;10.728;2023-11-21T05:02:21;4.80;;;2.90;;
14048;SDS011;7099;53.922;10.728;2023-11-21T05:06:39;3.30;;;3.00;;
14048;SDS011;7099;53.922;10.728;2023-11-21T05:10:45;5.30;;;3.00;;
14048;SDS011;7099;53.922;10.728;2023-11-21T05:14:50;3.43;;;3.13;;
14048;SDS011;7099;53.922;10.728;2023-11-21T05:18:56;6.73;;;3.63;;
14048;SDS011;7099;53.922;10.728;2023-11-21T05:23:05;13.80;;;4.50;;
14048;SDS011;7099;53.922;10.728;2023-11-21T05:27:10;12.30;;;6.23;;
14048;SDS011;7099;53.922;10.728;2023-11-21T05:31:16;8.93;;;5.30;;
14048;SDS011;7099;53.922;10.728;2023-11-21T05:35:22;9.20;;;5.33;;
14048;SDS011;7099;53.922;10.728;2023-11-21T05:39:27;6.53;;;4.00;;
14048;SDS011;7099;53.922;10.728;2023-11-21T05:43:33;7.20;;;4.30;;
14048;SDS011;7099;53.922;10.728;2023-11-21T05:47:41;7.07;;;4.27;;
14048;SDS011;7099;53.922;10.728;2023-11-21T05:51:54;5.30;;;4.03;;
14048;SDS011;7099;53.922;10.728;2023-11-21T05:55:59;5.30;;;3.40;;
14048;SDS011;7099;53.922;10.728;2023-11-21T06:00:06;3.20;;;2.80;;
14048;SDS011;7099;53.922;10.728;2023-11-21T06:04:26;4.00;;;2.83;;
14048;SDS011;7099;53.922;10.728;2023-11-21T06:08:31;3.57;;;2.97;;
14048;SDS011;7099;53.922;10.728;2023-11-21T06:12:37;2.80;;;2.50;;
14048;SDS011;7099;53.922;10.728;2023-11-21T06:16:45;2.80;;;2.50;;
14048;SDS011;7099;53.922;10.728;2023-11-21T06:20:50;3.73;;;2.90;;
14048;SDS011;7099;53.922;10.728;2023-11-21T06:24:57;3.10;;;2.80;;
14048;SDS011;7099;53.922;10.728;2023-11-21T06:29:03;2.93;;;2.50;;
14048;SDS011;7099;53.922;10.728;2023-11-21T06:33:08;7.87;;;2.60;;
14048;SDS011;7099;53.922;10.728;2023-11-21T06:37:15;3.30;;;2.33;;
14048;SDS011;7099;53.922;10.728;2023-11-21T06:41:21;7.10;;;2.80;;
14048;SDS011;7099;53.922;10.728;2023-11-21T06:45:27;2.63;;;2.33;;
14048;SDS011;7099;53.922;10.728;2023-11-21T06:49:32;5.43;;;2.73;;
14048;SDS011;7099;53.922;10.728;2023-11-21T06:53:38;5.53;;;2.97;;
14048;SDS011;7099;53.922;10.728;2023-11-21T06:57:44;7.60;;;2.73;;
14048;SDS011;7099;53.922;10.728;2023-11-21T07:01:52;3.10;;;2.53;;
14048;SDS011;7099;53.922;10.728;2023-11-21T07:05:57;2.70;;;2.50;;
14048;SDS011;7099;53.922;10.728;2023-11-21T07:10:03;3.70;;;2.60;;
14048;SDS011;7099;53.922;10.728;2023-11-21T07:14:10;3.50;;;2.40;;
14048;SDS011;7099;53.922;10.728;2023-11-21T07:18:16;3.10;;;2.57;;
14048;SDS011;7099;53.922;10.728;2023-11-21T07:22:22;2.67;;;2.07;;
14048;SDS011;7099;53.922;10.728;2023-11-21T07:26:28;2.93;;;2.43;;
14048;SDS011;7099;53.922;10.728;2023-11-21T07:30:34;2.50;;;2.17;;
14048;SDS011;7099;53.922;10.728;2023-11-21T07:34:40;2.60;;;2.37;;
14048;SDS011;7099;53.922;10.728;2023-11-21T07:38:46;3.40;;;2.60;;
14048;SDS011;7099;53.922;10.728;2023-11-21T07:42:53;4.73;;;2.33;;
14048;SDS011;7099;53.922;10.728;2023-11-21T07:46:59;5.10;;;2.67;;
14048;SDS011;7099;53.922;10.728;2023-11-21T07:51:05;4.47;;;2.43;;
14048;SDS011;7099;53.922;10.728;2023-11-21T07:55:13;6.67;;;2.70;;
14048;SDS011;7099;53.922;10.728;2023-11-21T07:59:19;2.90;;;2.23;;
14048;SDS011;7099;53.922;10.728;2023-11-21T08:03:24;2.87;;;2.60;;
14048;SDS011;7099;53.922;10.728;2023-11-21T08:07:31;2.40;;;2.20;;
14048;SDS011;7099;53.922;10.728;2023-11-21T08:11:37;4.57;;;2.50;;
14048;SDS011;7099;53.922;10.728;2023-11-21T08:15:43;2.53;;;2.33;;
14048;SDS011;7099;53.922;10.728;2023-11-21T08:19:52;4.00;;;2.70;;
14048;SDS011;7099;53.922;10.728;2023-11-21T08:23:57;2.70;;;2.00;;
14048;SDS011;7099;53.922;10.728;2023-11-21T08:28:03;4.37;;;2.50;;
14048;SDS011;7099;53.922;10.728;2023-11-21T08:32:10;4.90;;;2.27;;
14048;SDS011;7099;53.922;10.728;2023-11-21T08:36:15;2.43;;;2.23;;
14048;SDS011;7099;53.922;10.728;2023-11-21T08:40:21;2.83;;;2.53;;
14048;SDS011;7099;53.922;10.728;2023-11-21T08:44:26;5.03;;;2.47;;
14048;SDS011;7099;53.922;10.728;2023-11-21T08:48:32;2.47;;;2.27;;
14048;SDS011;7099;53.922;10.728;2023-11-21T08:52:41;4.13;;;2.70;;
14048;SDS011;7099;53.922;10.728;2023-11-21T08:56:47;4.47;;;2.47;;
14048;SDS011;7099;53.922;10.728;2023-11-21T09:00:52;4.10;;;2.30;;
14048;SDS011;7099;53.922;10.728;2023-11-21T09:04:58;3.77;;;3.00;;
14048;SDS011;7099;53.922;10.728;2023-11-21T09:09:04;4.37;;;2.53;;
14048;SDS011;7099;53.922;10.728;2023-11-21T09:13:10;2.97;;;2.60;;
14048;SDS011;7099;53.922;10.728;2023-11-21T09:17:17;5.33;;;2.70;;
14048;SDS011;7099;53.922;10.728;2023-11-21T09:21:23;4.23;;;3.30;;
14048;SDS011;7099;53.922;10.728;2023-11-21T09:25:30;3.03;;;2.70;;
14048;SDS011;7099;53.922;10.728;2023-11-21T09:29:36;4.33;;;2.40;;
14048;SDS011;7099;53.922;10.728;2023-11-21T09:33:43;3.17;;;2.70;;
14048;SDS011;7099;53.922;10.728;2023-11-21T09:37:49;4.17;;;3.10;;
14048;SDS011;7099;53.922;10.728;2023-11-21T09:41:58;4.40;;;2.90;;
14048;SDS011;7099;53.922;10.728;2023-11-21T09:46:26;3.80;;;2.63;;
14048;SDS011;7099;53.922;10.728;2023-11-21T09:50:34;3.33;;;2.90;;
14048;SDS011;7099;53.922;10.728;2023-11-21T09:54:41;4.70;;;3.53;;
14048;SDS011;7099;53.922;10.728;2023-11-21T09:58:47;4.63;;;3.03;;
14048;SDS011;7099;53.922;10.728;2023-11-21T10:02:57;5.40;;;3.10;;
14048;SDS011;7099;53.922;10.728;2023-11-21T10:07:04;4.23;;;2.70;;
14048;SDS011;7099;53.922;10.728;2023-11-21T10:11:14;5.73;;;2.50;;
14048;SDS011;7099;53.922;10.728;2023-11-21T10:15:21;2.70;;;2.50;;
14048;SDS011;7099;53.922;10.728;2023-11-21T10:19:27;4.03;;;2.90;;
14048;SDS011;7099;53.922;10.728;2023-11-21T10:23:34;3.90;;;2.90;;
14048;SDS011;7099;53.922;10.728;2023-11-21T10:27:40;7.60;;;3.07;;
14048;SDS011;7099;53.922;10.728;2023-11-21T10:31:49;3.40;;;2.40;;
14048;SDS011;7099;53.922;10.728;2023-11-21T10:35:56;2.57;;;2.37;;
14048;SDS011;7099;53.922;10.728;2023-11-21T10:40:01;3.80;;;3.17;;
14048;SDS011;7099;53.922;10.728;2023-11-21T10:44:08;4.83;;;2.43;;
14048;SDS011;7099;53.922;10.728;2023-11-21T10:48:16;4.40;;;3.07;;
14048;SDS011;7099;53.922;10.728;2023-11-21T10:52:22;4.10;;;3.10;;
14048;SDS011;7099;53.922;10.728;2023-11-21T10:56:32;5.97;;;2.73;;
14048;SDS011;7099;53.922;10.728;2023-11-21T11:00:40;4.87;;;3.33;;
14048;SDS011;7099;53.922;10.728;2023-11-21T11:04:46;6.37;;;3.27;;
14048;SDS011;7099;53.922;10.728;2023-11-21T11:08:53;4.80;;;3.10;;
14048;SDS011;7099;53.922;10.728;2023-11-21T11:12:59;3.73;;;3.27;;
14048;SDS011;7099;53.922;10.728;2023-11-21T11:17:05;6.90;;;3.20;;
14048;SDS011;7099;53.922;10.728;2023-11-21T11:21:33;6.23;;;3.60;;
14048;SDS011;7099;53.922;10.728;2023-11-21T11:34:46;4.90;;;3.20;;
14048;SDS011;7099;53.922;10.728;2023-11-21T11:39:26;4.93;;;3.10;;
14048;SDS011;7099;53.922;10.728;2023-11-21T11:43:36;3.50;;;3.00;;
14048;SDS011;7099;53.922;10.728;2023-11-21T11:47:49;3.83;;;3.00;;
14048;SDS011;7099;53.922;10.728;2023-11-21T11:56:39;3.63;;;2.53;;
14048;SDS011;7099;53.922;10.728;2023-11-21T12:00:45;3.60;;;2.83;;
14048;SDS011;7099;53.922;10.728;2023-11-21T12:04:55;4.57;;;3.03;;
14048;SDS011;7099;53.922;10.728;2023-11-21T12:09:02;2.50;;;2.30;;
14048;SDS011;7099;53.922;10.728;2023-11-21T12:13:10;5.30;;;2.43;;
14048;SDS011;7099;53.922;10.728;2023-11-21T12:17:19;3.23;;;2.30;;
14048;SDS011;7099;53.922;10.728;2023-11-21T12:21:24;6.03;;;2.47;;
14048;SDS011;7099;53.922;10.728;2023-11-21T12:25:30;2.73;;;2.17;;
14048;SDS011;7099;53.922;10.728;2023-11-21T12:29:37;4.63;;;2.47;;
14048;SDS011;7099;53.922;10.728;2023-11-21T12:33:45;2.43;;;2.23;;
14048;SDS011;7099;53.922;10.728;2023-11-21T12:37:51;3.33;;;2.70;;
14048;SDS011;7099;53.922;10.728;2023-11-21T12:41:59;14.27;;;2.30;;
14048;SDS011;7099;53.922;10.728;2023-11-21T12:46:08;2.13;;;1.93;;
14048;SDS011;7099;53.922;10.728;2023-11-21T12:50:18;4.10;;;2.10;;
14048;SDS011;7099;53.922;10.728;2023-11-21T12:54:33;1.97;;;1.73;;
14048;SDS011;7099;53.922;10.728;2023-11-21T12:58:43;2.80;;;2.40;;
14048;SDS011;7099;53.922;10.728;2023-11-21T13:02:52;2.80;;;2.17;;
14048;SDS011;7099;53.922;10.728;2023-11-21T13:07:04;4.73;;;2.70;;
14048;SDS011;7099;53.922;10.728;2023-11-21T13:11:19;4.70;;;2.43;;
14048;SDS011;7099;53.922;10.728;2023-11-21T13:15:26;2.43;;;1.90;;
14048;SDS011;7099;53.922;10.728;2023-11-21T13:48:31;1.50;;;1.30;;
14048;SDS011;7099;53.922;10.728;2023-11-21T13:52:52;4.60;;;2.10;;
14048;SDS011;7099;53.922;10.728;2023-11-21T13:56:58;2.40;;;1.70;;
14048;SDS011;7099;53.922;10.728;2023-11-21T14:01:05;2.10;;;1.77;;
14048;SDS011;7099;53.922;10.728;2023-11-21T14:05:18;1.77;;;1.67;;
14048;SDS011;7099;53.922;10.728;2023-11-21T14:09:33;1.93;;;1.73;;
14048;SDS011;7099;53.922;10.728;2023-11-21T14:13:48;3.03;;;1.90;;
14048;SDS011;7099;53.922;10.728;2023-11-21T14:17:54;3.03;;;1.70;;
14048;SDS011;7099;53.922;10.728;2023-11-21T14:22:00;1.70;;;1.60;;
14048;SDS011;7099;53.922;10.728;2023-11-21T14:26:06;2.40;;;2.10;;
14048;SDS011;7099;53.922;10.728;2023-11-21T14:30:12;2.80;;;2.30;;
14048;SDS011;7099;53.922;10.728;2023-11-21T14:34:18;1.73;;;1.60;;
14048;SDS011;7099;53.922;10.728;2023-11-21T14:38:26;5.23;;;2.00;;
14048;SDS011;7099;53.922;10.728;2023-11-21T14:42:32;2.00;;;1.40;;
14048;SDS011;7099;53.922;10.728;2023-11-21T14:46:39;2.20;;;1.95;;
14048;SDS011;7099;53.922;10.728;2023-11-21T14:50:49;2.20;;;1.93;;
14048;SDS011;7099;53.922;10.728;2023-11-21T14:55:14;3.10;;;2.30;;
14048;SDS011;7099;53.922;10.728;2023-11-21T14:59:25;4.87;;;4.33;;
14048;SDS011;7099;53.922;10.728;2023-11-21T15:03:31;3.57;;;2.80;;
14048;SDS011;7099;53.922;10.728;2023-11-21T15:07:37;6.33;;;2.47;;
14048;SDS011;7099;53.922;10.728;2023-11-21T15:11:44;2.97;;;2.67;;
14048;SDS011;7099;53.922;10.728;2023-11-21T15:15:52;4.50;;;2.77;;
14048;SDS011;7099;53.922;10.728;2023-11-21T15:19:59;3.10;;;2.17;;
14048;SDS011;7099;53.922;10.728;2023-11-21T15:24:05;5.90;;;2.53;;
14048;SDS011;7099;53.922;10.728;2023-11-21T15:28:11;5.30;;;2.50;;
14048;SDS011;7099;53.922;10.728;2023-11-21T15:32:17;3.57;;;2.90;;
14048;SDS011;7099;53.922;10.728;2023-11-21T15:36:22;4.07;;;3.37;;
14048;SDS011;7099;53.922;10.728;2023-11-21T16:17:43;2.13;;;1.93;;
14048;SDS011;7099;53.922;10.728;2023-11-21T16:21:49;4.90;;;2.07;;
14048;SDS011;7099;53.922;10.728;2023-11-21T16:25:54;3.03;;;2.10;;
14048;SDS011;7099;53.922;10.728;2023-11-21T17:15:19;8.53;;;4.80;;
14048;SDS011;7099;53.922;10.728;2023-11-21T17:19:26;3.57;;;2.93;;
14048;SDS011;7099;53.922;10.728;2023-11-21T17:23:36;13.87;;;12.57;;
14048;SDS011;7099;53.922;10.728;2023-11-21T17:27:42;3.97;;;2.63;;
14048;SDS011;7099;53.922;10.728;2023-11-21T17:31:47;4.20;;;2.33;;
14048;SDS011;7099;53.922;10.728;2023-11-21T17:35:54;2.23;;;1.93;;
14048;SDS011;7099;53.922;10.728;2023-11-21T17:40:00;2.73;;;2.10;;
14048;SDS011;7099;53.922;10.728;2023-11-21T17:44:05;5.60;;;2.50;;
14048;SDS011;7099;53.922;10.728;2023-11-21T17:48:11;6.10;;;2.70;;
14048;SDS011;7099;53.922;10.728;2023-11-21T17:52:17;2.67;;;2.47;;
14048;SDS011;7099;53.922;10.728;2023-11-21T17:56:26;5.30;;;2.23;;
14048;SDS011;7099;53.922;10.728;2023-11-21T18:00:32;2.93;;;2.17;;
14048;SDS011;7099;53.922;10.728;2023-11-21T18:04:38;2.23;;;2.03;;
14048;SDS011;7099;53.922;10.728;2023-11-21T18:08:44;1.83;;;1.73;;
14048;SDS011;7099;53.922;10.728;2023-11-21T18:12:50;2.87;;;2.20;;
14048;SDS011;7099;53.922;10.728;2023-11-21T18:16:55;2.60;;;1.87;;
14048;SDS011;7099;53.922;10.728;2023-11-21T18:21:02;3.83;;;2.10;;
14048;SDS011;7099;53.922;10.728;2023-11-21T18:25:07;2.13;;;1.93;;
14048;SDS011;7099;53.922;10.728;2023-11-21T18:29:13;5.20;;;1.70;;
14048;SDS011;7099;53.922;10.728;2023-11-21T18:33:22;3.70;;;1.17;;
14048;SDS011;7099;53.922;10.728;2023-11-21T18:37:28;3.00;;;1.60;;
14048;SDS011;7099;53.922;10.728;2023-11-21T18:41:35;2.37;;;1.40;;
14048;SDS011;7099;53.922;10.728;2023-11-21T18:45:41;4.10;;;1.80;;
14048;SDS011;7099;53.922;10.728;2023-11-21T18:49:46;3.50;;;2.27;;
14048;SDS011;7099;53.922;10.728;2023-11-21T18:53:52;7.07;;;3.10;;
14048;SDS011;7099;53.922;10.728;2023-11-21T18:57:58;9.23;;;2.87;;
14048;SDS011;7099;53.922;10.728;2023-11-21T19:02:04;2.90;;;2.00;;
14048;SDS011;7099;53.922;10.728;2023-11-21T19:06:13;2.47;;;1.90;;
14048;SDS011;7099;53.922;10.728;2023-11-21T19:10:19;2.47;;;2.27;;
14048;SDS011;7099;53.922;10.728;2023-11-21T19:14:26;5.53;;;2.10;;
14048;SDS011;7099;53.922;10.728;2023-11-21T19:18:31;2.10;;;1.90;;
14048;SDS011;7099;53.922;10.728;2023-11-21T19:22:37;2.77;;;1.53;;
14048;SDS011;7099;53.922;10.728;2023-11-21T19:26:43;2.13;;;1.90;;
14048;SDS011;7099;53.922;10.728;2023-11-21T19:30:49;2.20;;;2.00;;
14048;SDS011;7099;53.922;10.728;2023-11-21T19:39:01;2.20;;;2.00;;
14048;SDS011;7099;53.922;10.728;2023-11-21T19:43:06;4.40;;;1.73;;
14048;SDS011;7099;53.922;10.728;2023-11-21T21:05:23;4.30;;;2.10;;
14048;SDS011;7099;53.922;10.728;2023-11-21T21:09:31;8.83;;;2.87;;
14048;SDS011;7099;53.922;10.728;2023-11-21T21:13:37;4.23;;;2.30;;
14048;SDS011;7099;53.922;10.728;2023-11-21T21:17:44;3.13;;;2.60;;
14048;SDS011;7099;53.922;10.728;2023-11-21T21:21:50;4.90;;;2.50;;
14048;SDS011;7099;53.922;10.728;2023-11-21T21:25:55;3.97;;;2.80;;
14048;SDS011;7099;53.922;10.728;2023-11-21T21:30:02;2.40;;;2.20;;
14048;SDS011;7099;53.922;10.728;2023-11-21T21:34:09;4.80;;;2.37;;
14048;SDS011;7099;53.922;10.728;2023-11-21T21:38:16;6.43;;;2.40;;
14048;SDS011;7099;53.922;10.728;2023-11-21T21:42:22;2.40;;;2.00;;
14048;SDS011;7099;53.922;10.728;2023-11-21T21:46:27;4.27;;;2.23;;
14048;SDS011;7099;53.922;10.728;2023-11-21T21:50:33;4.90;;;2.50;;
14048;SDS011;7099;53.922;10.728;2023-11-21T22:02:49;3.73;;;2.20;;
14048;SDS011;7099;53.922;10.728;2023-11-21T22:06:55;4.37;;;2.30;;
14048;SDS011;7099;53.922;10.728;2023-11-21T22:11:01;3.37;;;2.10;;
14048;SDS011;7099;53.922;10.728;2023-11-21T22:19:13;2.47;;;2.10;;
14048;SDS011;7099;53.922;10.728;2023-11-21T22:23:19;2.60;;;2.40;;
14048;SDS011;7099;53.922;10.728;2023-11-21T22:27:25;3.47;;;2.40;;
14048;SDS011;7099;53.922;10.728;2023-11-21T22:35:36;3.20;;;2.60;;
14048;SDS011;7099;53.922;10.728;2023-11-21T22:39:49;2.60;;;2.23;;
14048;SDS011;7099;53.922;10.728;2023-11-21T22:43:56;9.10;;;2.80;;
14048;SDS011;7099;53.922;10.728;2023-11-21T22:48:01;5.73;;;2.53;;
14048;SDS011;7099;53.922;10.728;2023-11-21T22:52:07;3.73;;;2.33;;
14048;SDS011;7099;53.922;10.728;2023-11-21T22:56:13;7.65;;;2.60;;
14048;SDS011;7099;53.922;10.728;2023-11-21T23:00:18;7.47;;;2.70;;
14048;SDS011;7099;53.922;10.728;2023-11-21T23:04:34;11.00;;;2.40;;
14048;SDS011;7099;53.922;10.728;2023-11-21T23:08:39;2.60;;;2.40;;
14048;SDS011;7099;53.922;10.728;2023-11-21T23:12:46;5.70;;;3.00;;
14048;SDS011;7099;53.922;10.728;2023-11-21T23:16:52;4.03;;;2.37;;
14048;SDS011;7099;53.922;10.728;2023-11-21T23:20:58;2.70;;;2.30;;
14048;SDS011;7099;53.922;10.728;2023-11-21T23:25:05;2.60;;;2.00;;
14048;SDS011;7099;53.922;10.728;2023-11-21T23:29:11;3.33;;;2.30;;
14048;SDS011;7099;53.922;10.728;2023-11-21T23:33:17;2.60;;;2.40;;
14048;SDS011;7099;53.922;10.728;2023-11-21T23:37:25;4.40;;;2.30;;
14048;SDS011;7099;53.922;10.728;2023-11-21T23:41:30;2.30;;;2.10;;
14048;SDS011;7099;53.922;10.728;2023-11-21T23:45:36;2.17;;;1.97;;
14048;SDS011;7099;53.922;10.728;2023-11-21T23:49:43;3.17;;;2.80;;
14048;SDS011;7099;53.922;10.728;2023-11-21T23:53:48;2.20;;;2.00;;
14048;SDS011;7099;53.922;10.728;2023-11-21T23:57:53;2.13;;;1.93;;
